createdAt,value
2022-10-10T00:00:15.347Z,6.80
2022-10-10T00:01:15.374Z,4.30
2022-10-10T00:02:15.335Z,5.20
2022-10-10T00:03:15.319Z,5.90
2022-10-10T00:04:15.317Z,4.60
2022-10-10T00:05:15.313Z,5.60
2022-10-10T00:06:15.323Z,4.80
2022-10-10T00:07:15.305Z,5.00
2022-10-10T00:08:15.284Z,4.30
2022-10-10T00:09:15.278Z,4.80
2022-10-10T00:10:15.280Z,4.20
2022-10-10T00:11:15.295Z,5.40
2022-10-10T00:12:15.254Z,5.10
2022-10-10T00:13:15.254Z,3.90
2022-10-10T00:14:15.249Z,5.60
2022-10-10T00:15:15.235Z,3.40
2022-10-10T00:16:15.253Z,4.70
2022-10-10T00:17:15.222Z,6.80
2022-10-10T00:18:15.217Z,4.60
2022-10-10T00:19:15.212Z,6.10
2022-10-10T00:20:15.203Z,4.90
2022-10-10T00:21:15.214Z,5.30
2022-10-10T00:22:15.187Z,4.30
2022-10-10T00:23:15.182Z,4.20
2022-10-10T00:24:15.169Z,5.10
2022-10-10T00:25:15.159Z,5.70
2022-10-10T00:26:18.760Z,4.30
2022-10-10T00:27:16.141Z,4.00
2022-10-10T00:28:15.152Z,4.50
2022-10-10T00:29:15.124Z,3.50
2022-10-10T00:30:15.112Z,4.20
2022-10-10T00:31:16.146Z,4.60
2022-10-10T00:32:15.104Z,5.40
2022-10-10T00:33:15.103Z,4.10
2022-10-10T00:34:15.104Z,5.50
2022-10-10T00:35:15.081Z,7.30
2022-10-10T00:36:15.096Z,7.00
2022-10-10T00:37:15.064Z,6.70
2022-10-10T00:38:15.060Z,5.30
2022-10-10T00:39:15.050Z,5.90
2022-10-10T00:40:15.044Z,5.50
2022-10-10T00:41:15.069Z,5.00
2022-10-10T00:42:15.027Z,5.90
2022-10-10T00:43:15.030Z,5.90
2022-10-10T00:44:15.018Z,5.00
2022-10-10T00:45:15.014Z,5.30
2022-10-10T00:46:15.038Z,6.50
2022-10-10T00:47:15.004Z,6.30
2022-10-10T00:48:14.986Z,5.90
2022-10-10T00:49:14.988Z,6.10
2022-10-10T00:50:14.976Z,5.70
2022-10-10T00:51:14.998Z,6.00
2022-10-10T00:52:14.965Z,5.50
2022-10-10T00:53:14.963Z,7.70
2022-10-10T00:54:14.942Z,5.40
2022-10-10T00:55:14.938Z,6.30
2022-10-10T00:56:14.957Z,7.60
2022-10-10T00:57:14.934Z,6.50
2022-10-10T00:58:14.922Z,6.20
2022-10-10T00:59:14.905Z,6.20
2022-10-10T01:00:14.899Z,5.60
2022-10-10T01:01:14.954Z,5.90
2022-10-10T01:02:14.881Z,6.40
2022-10-10T01:03:14.914Z,6.00
2022-10-10T01:04:14.872Z,6.40
2022-10-10T01:05:14.858Z,6.40
2022-10-10T01:06:14.877Z,6.60
2022-10-10T01:07:14.884Z,5.60
2022-10-10T01:08:14.834Z,5.80
2022-10-10T01:09:14.828Z,7.00
2022-10-10T01:10:14.821Z,6.00
2022-10-10T01:11:14.836Z,6.00
2022-10-10T01:12:14.801Z,7.20
2022-10-10T01:13:14.815Z,6.50
2022-10-10T01:14:14.837Z,6.80
2022-10-10T01:15:14.816Z,6.40
2022-10-10T01:16:14.794Z,5.80
2022-10-10T01:17:14.768Z,4.00
2022-10-10T01:18:14.761Z,5.40
2022-10-10T01:19:14.748Z,6.20
2022-10-10T01:20:14.746Z,6.80
2022-10-10T01:21:14.766Z,5.70
2022-10-10T01:22:14.731Z,5.10
2022-10-10T01:23:14.728Z,9.30
2022-10-10T01:24:14.710Z,6.10
2022-10-10T01:25:14.701Z,6.40
2022-10-10T01:26:14.731Z,5.40
2022-10-10T01:27:14.693Z,5.50
2022-10-10T01:28:14.741Z,6.40
2022-10-10T01:29:14.692Z,6.10
2022-10-10T01:30:14.667Z,5.60
2022-10-10T01:31:14.699Z,5.70
2022-10-10T01:32:14.651Z,5.20
2022-10-10T01:33:14.643Z,5.60
2022-10-10T01:34:14.638Z,4.30
2022-10-10T01:35:14.631Z,3.90
2022-10-10T01:36:14.621Z,6.10
2022-10-10T01:37:14.641Z,8.00
2022-10-10T01:38:14.607Z,5.20
2022-10-10T01:39:14.593Z,4.40
2022-10-10T01:40:14.595Z,5.60
2022-10-10T01:41:14.587Z,6.00
2022-10-10T01:42:14.606Z,5.50
2022-10-10T01:43:14.571Z,4.90
2022-10-10T01:44:14.569Z,4.30
2022-10-10T01:45:14.555Z,4.20
2022-10-10T01:46:14.547Z,4.20
2022-10-10T01:47:14.567Z,5.00
2022-10-10T01:48:14.538Z,4.80
2022-10-10T01:49:14.531Z,5.30
2022-10-10T01:50:14.521Z,4.70
2022-10-10T01:51:14.512Z,6.40
2022-10-10T01:52:14.526Z,4.70
2022-10-10T01:53:14.498Z,3.50
2022-10-10T01:54:14.494Z,4.00
2022-10-10T01:55:14.482Z,5.10
2022-10-10T01:56:14.508Z,4.30
2022-10-10T01:57:14.494Z,4.20
2022-10-10T01:58:14.458Z,4.30
2022-10-10T01:59:14.452Z,5.10
2022-10-10T02:00:14.445Z,5.10
2022-10-10T02:01:14.489Z,5.70
2022-10-10T02:02:14.466Z,7.80
2022-10-10T02:03:14.425Z,6.30
2022-10-10T02:04:14.419Z,5.90
2022-10-10T02:05:14.402Z,6.00
2022-10-10T02:06:14.403Z,6.40
2022-10-10T02:07:14.422Z,6.10
2022-10-10T02:08:14.385Z,6.20
2022-10-10T02:09:14.377Z,5.10
2022-10-10T02:10:14.368Z,6.90
2022-10-10T02:11:14.362Z,6.00
2022-10-10T02:12:14.386Z,5.60
2022-10-10T02:13:14.349Z,5.20
2022-10-10T02:14:14.344Z,5.40
2022-10-10T02:15:14.341Z,5.30
2022-10-10T02:16:14.325Z,5.50
2022-10-10T02:17:14.351Z,6.70
2022-10-10T02:18:14.310Z,7.40
2022-10-10T02:19:14.309Z,6.80
2022-10-10T02:20:14.298Z,6.00
2022-10-10T02:21:14.290Z,7.10
2022-10-10T02:22:14.308Z,7.10
2022-10-10T02:23:14.286Z,5.50
2022-10-10T02:24:14.273Z,9.00
2022-10-10T02:25:14.265Z,5.90
2022-10-10T02:26:14.263Z,7.70
2022-10-10T02:27:14.276Z,7.60
2022-10-10T02:28:14.310Z,6.40
2022-10-10T02:29:14.233Z,7.50
2022-10-10T02:30:14.229Z,8.20
2022-10-10T02:31:14.243Z,7.90
2022-10-10T02:32:14.213Z,6.90
2022-10-10T02:33:14.205Z,5.10
2022-10-10T02:34:14.192Z,5.70
2022-10-10T02:35:14.192Z,6.00
2022-10-10T02:36:14.183Z,5.50
2022-10-10T02:37:14.198Z,5.30
2022-10-10T02:38:14.176Z,5.10
2022-10-10T02:39:14.161Z,5.90
2022-10-10T02:40:14.160Z,7.10
2022-10-10T02:41:14.143Z,8.20
2022-10-10T02:42:14.167Z,7.20
2022-10-10T02:43:14.134Z,7.10
2022-10-10T02:44:14.121Z,6.90
2022-10-10T02:45:14.123Z,6.40
2022-10-10T02:46:14.113Z,8.60
2022-10-10T02:47:14.121Z,9.20
2022-10-10T02:48:14.086Z,8.20
2022-10-10T02:49:14.086Z,8.70
2022-10-10T02:50:14.075Z,10.40
2022-10-10T02:51:14.069Z,13.10
2022-10-10T02:52:14.081Z,14.20
2022-10-10T02:53:14.049Z,14.40
2022-10-10T02:54:14.045Z,14.80
2022-10-10T02:55:14.040Z,10.90
2022-10-10T02:56:14.029Z,9.80
2022-10-10T02:57:14.037Z,9.50
2022-10-10T02:58:14.007Z,8.60
2022-10-10T02:59:14.013Z,8.40
2022-10-10T03:00:13.998Z,7.60
2022-10-10T03:01:14.032Z,8.40
2022-10-10T03:02:14.012Z,7.40
2022-10-10T03:03:13.978Z,8.90
2022-10-10T03:04:13.964Z,7.80
2022-10-10T03:05:13.960Z,8.10
2022-10-10T03:06:13.959Z,8.00
2022-10-10T03:07:13.965Z,7.70
2022-10-10T03:08:14.939Z,9.90
2022-10-10T03:09:13.934Z,7.70
2022-10-10T03:10:13.921Z,9.00
2022-10-10T03:11:13.914Z,8.60
2022-10-10T03:12:13.934Z,8.60
2022-10-10T03:13:13.899Z,8.30
2022-10-10T03:14:13.892Z,8.90
2022-10-10T03:15:13.881Z,8.40
2022-10-10T03:16:13.877Z,10.30
2022-10-10T03:17:13.897Z,10.50
2022-10-10T03:18:13.864Z,14.00
2022-10-10T03:19:13.852Z,15.10
2022-10-10T03:20:13.841Z,15.80
2022-10-10T03:21:13.838Z,12.00
2022-10-10T03:22:13.859Z,10.30
2022-10-10T03:23:13.827Z,11.80
2022-10-10T03:24:13.816Z,12.10
2022-10-10T03:25:13.807Z,10.80
2022-10-10T03:26:13.801Z,9.50
2022-10-10T03:27:13.821Z,9.60
2022-10-10T03:28:13.822Z,9.40
2022-10-10T03:29:13.776Z,11.10
2022-10-10T03:30:13.779Z,9.90
2022-10-10T03:31:13.762Z,9.60
2022-10-10T03:32:13.782Z,10.50
2022-10-10T03:33:13.747Z,10.70
2022-10-10T03:34:13.745Z,9.60
2022-10-10T03:35:13.740Z,10.70
2022-10-10T03:36:13.723Z,9.20
2022-10-10T03:37:13.761Z,11.80
2022-10-10T03:38:13.730Z,10.50
2022-10-10T03:39:13.704Z,9.70
2022-10-10T03:40:13.703Z,10.10
2022-10-10T03:41:13.702Z,9.90
2022-10-10T03:42:13.710Z,8.80
2022-10-10T03:43:13.677Z,11.40
2022-10-10T03:44:13.670Z,13.80
2022-10-10T03:45:13.674Z,10.50
2022-10-10T03:46:16.237Z,10.90
2022-10-10T03:47:14.681Z,10.60
2022-10-10T03:48:13.649Z,11.30
2022-10-10T03:49:13.637Z,10.40
2022-10-10T03:50:13.619Z,10.10
2022-10-10T03:51:13.617Z,11.30
2022-10-10T03:52:13.782Z,9.40
2022-10-10T03:53:13.595Z,10.30
2022-10-10T03:54:13.590Z,9.40
2022-10-10T03:55:13.581Z,11.60
2022-10-10T03:56:13.589Z,8.40
2022-10-10T03:57:13.576Z,10.10
2022-10-10T03:58:13.595Z,9.40
2022-10-10T03:59:13.565Z,8.10
2022-10-10T04:00:13.543Z,18.90
2022-10-10T04:01:14.592Z,8.60
2022-10-10T04:02:13.535Z,10.40
2022-10-10T04:03:13.551Z,8.80
2022-10-10T04:04:13.522Z,9.80
2022-10-10T04:05:13.512Z,9.90
2022-10-10T04:06:13.505Z,9.10
2022-10-10T04:07:13.503Z,9.30
2022-10-10T04:08:13.514Z,9.70
2022-10-10T04:09:13.476Z,9.40
2022-10-10T04:10:13.477Z,12.60
2022-10-10T04:11:13.467Z,13.30
2022-10-10T04:12:13.457Z,13.70
2022-10-10T04:13:13.482Z,12.10
2022-10-10T04:14:13.442Z,10.80
2022-10-10T04:15:13.438Z,10.40
2022-10-10T04:16:13.424Z,9.20
2022-10-10T04:17:13.419Z,11.80
2022-10-10T04:18:13.439Z,11.60
2022-10-10T04:19:13.404Z,11.70
2022-10-10T04:20:13.399Z,10.60
2022-10-10T04:21:13.396Z,10.00
2022-10-10T04:22:13.382Z,11.90
2022-10-10T04:23:13.407Z,11.80
2022-10-10T04:24:13.377Z,11.00
2022-10-10T04:25:13.360Z,10.10
2022-10-10T04:26:13.371Z,10.70
2022-10-10T04:27:13.368Z,9.40
2022-10-10T04:28:13.382Z,10.70
2022-10-10T04:29:13.342Z,9.30
2022-10-10T04:30:13.324Z,10.60
2022-10-10T04:31:13.320Z,9.00
2022-10-10T04:32:13.313Z,11.40
2022-10-10T04:33:13.341Z,8.10
2022-10-10T04:34:13.292Z,12.60
2022-10-10T04:35:13.301Z,10.90
2022-10-10T04:36:13.282Z,10.20
2022-10-10T04:37:13.277Z,10.60
2022-10-10T04:38:13.290Z,9.10
2022-10-10T04:39:13.270Z,7.60
2022-10-10T04:40:13.258Z,8.40
2022-10-10T04:41:13.248Z,10.20
2022-10-10T04:42:13.241Z,9.90
2022-10-10T04:43:13.260Z,10.00
2022-10-10T04:44:13.224Z,10.30
2022-10-10T04:45:13.214Z,10.70
2022-10-10T04:46:13.205Z,11.60
2022-10-10T04:47:13.227Z,10.30
2022-10-10T04:48:13.219Z,11.20
2022-10-10T04:49:13.181Z,12.90
2022-10-10T04:50:13.171Z,9.50
2022-10-10T04:51:13.171Z,11.40
2022-10-10T04:52:13.161Z,10.70
2022-10-10T04:53:13.180Z,13.80
2022-10-10T04:54:13.146Z,10.20
2022-10-10T04:55:13.133Z,10.40
2022-10-10T04:56:13.129Z,11.10
2022-10-10T04:57:13.118Z,10.60
2022-10-10T04:58:13.132Z,12.70
2022-10-10T04:59:13.108Z,10.20
2022-10-10T05:00:13.099Z,11.10
2022-10-10T05:01:13.142Z,8.80
2022-10-10T05:02:13.092Z,9.10
2022-10-10T05:03:13.109Z,10.20
2022-10-10T05:04:13.066Z,9.50
2022-10-10T05:05:13.061Z,8.50
2022-10-10T05:06:13.051Z,10.60
2022-10-10T05:07:13.046Z,11.00
2022-10-10T05:08:13.071Z,10.90
2022-10-10T05:09:13.042Z,10.40
2022-10-10T05:10:13.027Z,13.50
2022-10-10T05:11:13.015Z,11.30
2022-10-10T05:12:13.016Z,9.90
2022-10-10T05:13:13.025Z,9.40
2022-10-10T05:14:12.993Z,10.10
2022-10-10T05:15:12.983Z,13.00
2022-10-10T05:16:12.985Z,9.90
2022-10-10T05:17:12.952Z,11.70
2022-10-10T05:18:13.988Z,15.70
2022-10-10T05:19:12.962Z,18.10
2022-10-10T05:20:12.953Z,14.60
2022-10-10T05:21:12.940Z,15.10
2022-10-10T05:22:12.939Z,12.20
2022-10-10T05:23:12.957Z,13.40
2022-10-10T05:24:12.919Z,13.50
2022-10-10T05:25:12.905Z,12.00
2022-10-10T05:26:13.907Z,13.50
2022-10-10T05:27:12.893Z,12.20
2022-10-10T05:28:12.992Z,12.50
2022-10-10T05:29:12.879Z,11.00
2022-10-10T05:30:12.881Z,13.40
2022-10-10T05:31:12.870Z,10.10
2022-10-10T05:32:12.883Z,11.10
2022-10-10T05:33:12.879Z,12.40
2022-10-10T05:34:12.844Z,13.10
2022-10-10T05:35:12.834Z,11.80
2022-10-10T05:36:12.832Z,13.70
2022-10-10T05:37:12.821Z,10.80
2022-10-10T05:38:12.839Z,15.00
2022-10-10T05:39:12.809Z,15.70
2022-10-10T05:40:12.796Z,18.50
2022-10-10T05:41:12.796Z,13.80
2022-10-10T05:42:12.814Z,14.60
2022-10-10T05:43:12.896Z,16.10
2022-10-10T05:44:12.767Z,14.90
2022-10-10T05:45:12.767Z,14.70
2022-10-10T05:46:12.753Z,12.80
2022-10-10T05:47:12.742Z,13.00
2022-10-10T05:48:12.794Z,13.40
2022-10-10T05:49:12.727Z,10.80
2022-10-10T05:50:12.718Z,11.90
2022-10-10T05:51:12.715Z,10.90
2022-10-10T05:52:12.708Z,10.10
2022-10-10T05:53:12.725Z,8.90
2022-10-10T05:54:12.685Z,11.90
2022-10-10T05:55:12.675Z,10.90
2022-10-10T05:56:12.675Z,11.60
2022-10-10T05:57:16.242Z,10.40
2022-10-10T05:58:13.687Z,11.70
2022-10-10T05:59:12.655Z,10.20
2022-10-10T06:00:12.643Z,11.80
2022-10-10T06:01:12.637Z,11.20
2022-10-10T06:02:12.677Z,12.80
2022-10-10T06:03:12.649Z,10.50
2022-10-10T06:04:12.612Z,9.70
2022-10-10T06:05:12.610Z,9.20
2022-10-10T06:06:12.615Z,9.90
2022-10-10T06:07:12.587Z,10.60
2022-10-10T06:08:12.795Z,9.30
2022-10-10T06:09:12.616Z,12.00
2022-10-10T06:10:12.572Z,9.10
2022-10-10T06:11:12.561Z,8.50
2022-10-10T06:12:12.553Z,10.50
2022-10-10T06:13:12.559Z,12.20
2022-10-10T06:14:12.570Z,8.80
2022-10-10T06:15:12.530Z,10.20
2022-10-10T06:16:12.549Z,10.50
2022-10-10T06:17:12.551Z,9.80
2022-10-10T06:18:12.512Z,9.60
2022-10-10T06:19:14.975Z,12.30
2022-10-10T06:20:13.490Z,8.60
2022-10-10T06:21:12.487Z,11.90
2022-10-10T06:22:12.480Z,10.30
2022-10-10T06:23:12.479Z,9.60
2022-10-10T06:24:12.491Z,9.50
2022-10-10T06:25:35.263Z,10.70
2022-10-10T06:26:14.450Z,11.20
2022-10-10T06:27:12.445Z,9.60
2022-10-10T06:28:12.518Z,9.00
2022-10-10T06:29:12.459Z,9.40
2022-10-10T06:30:12.424Z,11.80
2022-10-10T06:31:12.518Z,9.80
2022-10-10T06:32:12.407Z,10.90
2022-10-10T06:33:12.404Z,10.40
2022-10-10T06:34:12.419Z,10.30
2022-10-10T06:35:12.385Z,9.90
2022-10-10T06:36:12.374Z,10.00
2022-10-10T06:37:12.386Z,10.20
2022-10-10T06:38:12.359Z,10.50
2022-10-10T06:39:13.381Z,9.60
2022-10-10T06:40:12.361Z,9.50
2022-10-10T06:41:12.342Z,9.90
2022-10-10T06:42:12.337Z,9.30
2022-10-10T06:43:12.462Z,11.30
2022-10-10T06:44:12.340Z,10.00
2022-10-10T06:45:12.312Z,10.10
2022-10-10T06:46:12.304Z,11.70
2022-10-10T06:47:12.298Z,12.60
2022-10-10T06:48:12.290Z,12.20
2022-10-10T06:49:12.311Z,10.70
2022-10-10T06:50:12.279Z,13.40
2022-10-10T06:51:12.263Z,9.80
2022-10-10T06:52:12.257Z,11.40
2022-10-10T06:53:12.255Z,10.30
2022-10-10T06:54:12.273Z,11.70
2022-10-10T06:55:12.234Z,11.00
2022-10-10T06:56:12.333Z,10.60
2022-10-10T06:57:12.218Z,10.30
2022-10-10T06:58:12.208Z,11.30
2022-10-10T06:59:12.230Z,11.30
2022-10-10T07:00:12.190Z,11.50
2022-10-10T07:01:12.307Z,11.90
2022-10-10T07:02:12.183Z,10.00
2022-10-10T07:03:12.170Z,10.60
2022-10-10T07:04:12.195Z,11.10
2022-10-10T07:05:12.163Z,12.70
2022-10-10T07:06:12.210Z,9.60
2022-10-10T07:07:12.139Z,11.80
2022-10-10T07:08:12.136Z,11.60
2022-10-10T07:09:12.156Z,12.10
2022-10-10T07:10:12.125Z,9.70
2022-10-10T07:11:12.239Z,9.40
2022-10-10T07:12:12.110Z,9.60
2022-10-10T07:13:12.111Z,14.10
2022-10-10T07:14:12.121Z,12.80
2022-10-10T07:15:12.088Z,11.60
2022-10-10T07:16:12.128Z,10.60
2022-10-10T07:17:12.075Z,10.90
2022-10-10T07:18:12.071Z,11.30
2022-10-10T07:19:12.081Z,10.20
2022-10-10T07:20:12.044Z,10.00
2022-10-10T07:21:12.102Z,10.30
2022-10-10T07:22:12.038Z,12.20
2022-10-10T07:23:12.104Z,11.70
2022-10-10T07:24:12.042Z,9.80
2022-10-10T07:25:12.012Z,9.50
2022-10-10T07:26:12.098Z,22.00
2022-10-10T07:27:11.991Z,12.30
2022-10-10T07:28:12.038Z,13.20
2022-10-10T07:29:12.003Z,13.70
2022-10-10T07:30:11.971Z,15.90
2022-10-10T07:31:12.041Z,14.20
2022-10-10T07:32:11.952Z,13.10
2022-10-10T07:33:11.943Z,10.90
2022-10-10T07:34:11.963Z,11.30
2022-10-10T07:35:11.941Z,11.70
2022-10-10T07:36:11.944Z,10.70
2022-10-10T07:37:11.924Z,10.70
2022-10-10T07:38:11.913Z,11.30
2022-10-10T07:39:16.909Z,9.60
2022-10-10T07:40:13.894Z,9.10
2022-10-10T07:41:11.892Z,13.10
2022-10-10T07:42:11.876Z,16.30
2022-10-10T07:43:11.878Z,16.20
2022-10-10T07:44:11.888Z,19.50
2022-10-10T07:45:11.858Z,14.30
2022-10-10T07:46:12.499Z,16.00
2022-10-10T07:47:11.839Z,13.70
2022-10-10T07:48:11.834Z,11.20
2022-10-10T07:49:11.850Z,11.60
2022-10-10T07:50:11.813Z,10.80
2022-10-10T07:51:11.822Z,10.20
2022-10-10T07:52:11.803Z,8.50
2022-10-10T07:53:11.793Z,12.60
2022-10-10T07:54:11.810Z,11.40
2022-10-10T07:55:11.779Z,11.60
2022-10-10T07:56:11.819Z,12.00
2022-10-10T07:57:11.767Z,10.70
2022-10-10T07:58:11.742Z,11.30
2022-10-10T07:59:12.773Z,10.50
2022-10-10T08:00:11.736Z,10.30
2022-10-10T08:01:11.735Z,14.90
2022-10-10T08:02:11.787Z,15.00
2022-10-10T08:03:12.304Z,15.10
2022-10-10T08:04:12.746Z,16.00
2022-10-10T08:05:11.703Z,10.20
2022-10-10T08:06:11.693Z,12.90
2022-10-10T08:07:11.768Z,11.20
2022-10-10T08:08:11.684Z,14.10
2022-10-10T08:09:11.702Z,13.20
2022-10-10T08:10:11.668Z,10.50
2022-10-10T08:11:11.694Z,9.30
2022-10-10T08:12:11.659Z,9.10
2022-10-10T08:13:11.648Z,9.70
2022-10-10T08:14:11.666Z,10.20
2022-10-10T08:16:11.624Z,10.00
2022-10-10T08:17:11.614Z,10.30
2022-10-10T08:18:11.611Z,9.30
2022-10-10T08:19:11.629Z,8.90
2022-10-10T08:20:11.596Z,10.50
2022-10-10T08:21:11.588Z,8.90
2022-10-10T08:22:11.577Z,8.30
2022-10-10T08:23:11.568Z,9.20
2022-10-10T08:24:11.587Z,8.80
2022-10-10T08:25:11.563Z,6.80
2022-10-10T08:26:11.553Z,8.90
2022-10-10T08:27:11.541Z,8.30
2022-10-10T08:28:11.576Z,8.50
2022-10-10T08:29:11.568Z,8.70
2022-10-10T08:30:11.525Z,7.40
2022-10-10T08:31:11.512Z,8.60
2022-10-10T08:32:11.505Z,8.90
2022-10-10T08:33:11.499Z,7.90
2022-10-10T08:34:11.492Z,8.00
2022-10-10T08:35:11.508Z,8.30
2022-10-10T08:36:11.518Z,9.50
2022-10-10T08:37:11.470Z,10.20
2022-10-10T08:38:11.462Z,9.40
2022-10-10T08:39:11.453Z,8.00
2022-10-10T08:40:11.469Z,8.30
2022-10-10T08:41:11.442Z,10.70
2022-10-10T08:42:11.437Z,8.40
2022-10-10T08:43:11.422Z,8.30
2022-10-10T08:44:11.440Z,9.40
2022-10-10T08:45:11.430Z,8.50
2022-10-10T08:46:12.394Z,7.70
2022-10-10T08:47:11.397Z,7.40
2022-10-10T08:48:11.385Z,10.00
2022-10-10T08:49:13.944Z,7.50
2022-10-10T08:50:12.399Z,7.80
2022-10-10T08:51:11.363Z,7.90
2022-10-10T08:52:11.357Z,11.10
2022-10-10T08:53:11.353Z,9.00
2022-10-10T08:54:11.349Z,8.50
2022-10-10T08:55:11.358Z,7.40
2022-10-10T08:56:11.320Z,9.40
2022-10-10T08:57:11.318Z,7.80
2022-10-10T08:58:11.304Z,8.30
2022-10-10T08:59:11.303Z,8.60
2022-10-10T09:00:11.316Z,7.00
2022-10-10T09:01:11.326Z,8.40
2022-10-10T09:02:17.859Z,8.40
2022-10-10T09:03:12.272Z,8.30
2022-10-10T09:04:11.268Z,7.20
2022-10-10T09:05:11.297Z,8.60
2022-10-10T09:06:11.249Z,6.70
2022-10-10T09:07:11.240Z,7.90
2022-10-10T09:08:11.231Z,8.10
2022-10-10T09:09:11.223Z,8.20
2022-10-10T09:10:11.253Z,7.80
2022-10-10T09:11:11.239Z,8.00
2022-10-10T09:12:11.203Z,7.10
2022-10-10T09:13:11.194Z,7.80
2022-10-10T09:14:11.192Z,8.00
2022-10-10T09:15:11.204Z,8.30
2022-10-10T09:16:11.175Z,8.50
2022-10-10T09:17:11.160Z,7.30
2022-10-10T09:18:11.149Z,7.20
2022-10-10T09:19:12.561Z,11.30
2022-10-10T09:20:11.162Z,9.00
2022-10-10T09:21:11.132Z,9.30
2022-10-10T09:22:11.125Z,7.70
2022-10-10T09:23:11.115Z,7.20
2022-10-10T09:24:11.130Z,7.10
2022-10-10T09:25:11.101Z,7.70
2022-10-10T09:26:11.761Z,7.00
2022-10-10T09:27:12.079Z,7.80
2022-10-10T09:28:11.112Z,8.40
2022-10-10T09:29:11.088Z,6.50
2022-10-10T09:30:11.084Z,8.10
2022-10-10T09:31:11.050Z,6.70
2022-10-10T09:32:11.041Z,7.80
2022-10-10T09:33:11.036Z,7.50
2022-10-10T09:34:11.061Z,8.10
2022-10-10T09:35:11.028Z,6.00
2022-10-10T09:36:11.017Z,6.80
2022-10-10T09:37:13.719Z,7.50
2022-10-10T09:38:12.998Z,7.10
2022-10-10T09:39:11.006Z,7.40
2022-10-10T09:40:11.025Z,9.00
2022-10-10T09:41:11.024Z,5.70
2022-10-10T09:42:10.981Z,6.00
2022-10-10T09:43:10.975Z,7.20
2022-10-10T09:44:10.987Z,8.90
2022-10-10T09:45:10.942Z,6.80
2022-10-10T09:46:10.940Z,7.00
2022-10-10T09:47:10.936Z,7.80
2022-10-10T09:48:10.920Z,7.10
2022-10-10T09:49:10.948Z,7.30
2022-10-10T09:50:10.918Z,7.50
2022-10-10T09:51:10.903Z,8.50
2022-10-10T09:52:10.890Z,8.10
2022-10-10T09:53:10.888Z,8.70
2022-10-10T09:54:10.905Z,6.80
2022-10-10T09:55:10.868Z,8.60
2022-10-10T09:56:10.864Z,7.60
2022-10-10T09:57:10.856Z,7.10
2022-10-10T09:58:10.847Z,6.40
2022-10-10T09:59:10.863Z,6.60
2022-10-10T10:00:10.829Z,6.30
2022-10-10T10:01:10.845Z,8.00
2022-10-10T10:02:10.816Z,7.40
2022-10-10T10:03:10.804Z,5.60
2022-10-10T10:04:27.275Z,7.50
2022-10-10T10:05:12.789Z,7.20
2022-10-10T10:06:10.781Z,7.50
2022-10-10T10:07:10.770Z,7.60
2022-10-10T10:08:10.764Z,6.60
2022-10-10T10:09:10.785Z,8.30
2022-10-10T10:10:10.752Z,6.70
2022-10-10T10:11:10.752Z,6.80
2022-10-10T10:12:10.752Z,7.10
2022-10-10T10:13:10.736Z,7.20
2022-10-10T10:14:10.879Z,7.30
2022-10-10T10:15:10.716Z,6.60
2022-10-10T10:16:10.708Z,8.30
2022-10-10T10:17:10.716Z,7.10
2022-10-10T10:18:10.690Z,6.10
2022-10-10T10:19:10.706Z,7.00
2022-10-10T10:20:11.005Z,8.10
2022-10-10T10:21:11.670Z,7.00
2022-10-10T10:22:10.661Z,6.50
2022-10-10T10:23:10.659Z,7.10
2022-10-10T10:24:10.685Z,5.90
2022-10-10T10:25:10.641Z,7.40
2022-10-10T10:26:10.637Z,8.80
2022-10-10T10:27:10.622Z,10.10
2022-10-10T10:28:10.638Z,8.00
2022-10-10T10:29:10.640Z,8.30
2022-10-10T10:30:10.603Z,9.30
2022-10-10T10:31:10.594Z,6.90
2022-10-10T10:32:10.585Z,10.30
2022-10-10T10:33:10.580Z,7.10
2022-10-10T10:34:10.597Z,8.00
2022-10-10T10:35:10.563Z,6.60
2022-10-10T10:36:10.554Z,8.20
2022-10-10T10:37:14.750Z,6.50
2022-10-10T10:38:11.530Z,10.10
2022-10-10T10:39:11.563Z,7.20
2022-10-10T10:40:10.527Z,8.00
2022-10-10T10:41:10.520Z,9.00
2022-10-10T10:42:10.512Z,8.20
2022-10-10T10:43:10.503Z,8.20
2022-10-10T10:44:10.520Z,8.20
2022-10-10T10:45:10.490Z,8.40
2022-10-10T10:46:10.477Z,7.50
2022-10-10T10:47:10.467Z,8.20
2022-10-10T10:48:10.467Z,6.70
2022-10-10T10:49:10.484Z,7.50
2022-10-10T10:50:10.441Z,6.90
2022-10-10T10:51:10.433Z,7.40
2022-10-10T10:52:10.433Z,7.10
2022-10-10T10:53:10.420Z,8.70
2022-10-10T10:54:10.454Z,6.70
2022-10-10T10:55:10.406Z,9.20
2022-10-10T10:56:10.404Z,7.80
2022-10-10T10:57:11.212Z,7.70
2022-10-10T11:00:21.812Z,8.40
2022-10-10T11:01:20.204Z,7.50
2022-10-10T11:02:11.598Z,9.70
2022-10-10T11:03:35.260Z,6.90
2022-10-10T11:05:20.450Z,7.50
2022-10-10T11:05:22.745Z,5.70
2022-10-10T11:06:11.375Z,7.50
2022-10-10T11:07:19.458Z,7.80
2022-10-10T11:08:12.365Z,8.70
2022-10-10T11:09:16.845Z,7.80
2022-10-10T11:10:12.287Z,8.10
2022-10-10T11:11:10.287Z,7.30
2022-10-10T11:12:10.277Z,9.00
2022-10-10T11:13:10.315Z,6.90
2022-10-10T11:14:10.302Z,7.10
2022-10-10T11:15:10.254Z,7.30
2022-10-10T11:16:24.264Z,6.90
2022-10-10T11:17:12.235Z,6.20
2022-10-10T11:18:10.279Z,8.40
2022-10-10T11:19:10.876Z,7.70
2022-10-10T11:20:10.214Z,8.30
2022-10-10T11:21:10.208Z,6.50
2022-10-10T11:22:10.197Z,6.70
2022-10-10T11:23:10.198Z,8.50
2022-10-10T11:24:10.199Z,7.10
2022-10-10T11:25:11.178Z,5.50
2022-10-10T11:26:10.169Z,6.40
2022-10-10T11:27:10.164Z,6.50
2022-10-10T11:28:10.190Z,6.10
2022-10-10T11:29:10.173Z,5.60
2022-10-10T11:30:10.151Z,7.00
2022-10-10T11:31:10.160Z,7.00
2022-10-10T11:32:10.190Z,5.80
2022-10-10T11:33:10.115Z,6.00
2022-10-10T11:34:10.128Z,6.00
2022-10-10T11:35:10.114Z,5.10
2022-10-10T11:36:10.088Z,5.70
2022-10-10T11:37:10.082Z,7.60
2022-10-10T11:38:10.075Z,7.10
2022-10-10T11:39:14.528Z,6.60
2022-10-10T11:40:12.099Z,5.20
2022-10-10T11:41:10.048Z,7.10
2022-10-10T11:42:10.046Z,8.50
2022-10-10T11:43:10.032Z,7.10
2022-10-10T11:44:10.093Z,5.30
2022-10-10T11:45:10.028Z,7.90
2022-10-10T11:46:10.324Z,7.40
2022-10-10T11:47:10.005Z,6.40
2022-10-10T11:48:10.002Z,6.60
2022-10-10T11:49:10.034Z,7.00
2022-10-10T11:50:09.980Z,7.50
2022-10-10T11:51:14.034Z,8.20
2022-10-10T11:52:32.606Z,6.00
2022-10-10T11:53:11.963Z,7.80
2022-10-10T11:54:09.951Z,8.80
2022-10-10T11:55:09.964Z,6.00
2022-10-10T11:56:09.934Z,6.00
2022-10-10T11:57:12.870Z,7.30
2022-10-10T11:58:10.933Z,6.70
2022-10-10T11:59:09.909Z,8.40
2022-10-10T12:00:09.975Z,6.30
2022-10-10T12:01:10.900Z,7.70
2022-10-10T12:02:09.889Z,10.10
2022-10-10T12:03:09.883Z,6.80
2022-10-10T12:04:09.877Z,6.40
2022-10-10T12:05:09.927Z,6.90
2022-10-10T12:06:09.859Z,8.50
2022-10-10T12:07:09.855Z,6.30
2022-10-10T12:08:11.504Z,6.20
2022-10-10T12:09:09.838Z,8.80
2022-10-10T12:10:09.929Z,8.40
2022-10-10T12:11:09.822Z,6.00
2022-10-10T12:12:09.817Z,7.30
2022-10-10T12:13:09.808Z,7.60
2022-10-10T12:14:09.795Z,9.30
2022-10-10T12:15:09.820Z,7.40
2022-10-10T12:16:09.782Z,10.20
2022-10-10T12:17:09.783Z,6.50
2022-10-10T12:18:09.769Z,7.30
2022-10-10T12:19:09.756Z,7.80
2022-10-10T12:20:09.801Z,7.00
2022-10-10T12:21:09.748Z,6.00
2022-10-10T12:22:09.737Z,7.50
2022-10-10T12:23:09.735Z,6.20
2022-10-10T12:24:09.750Z,6.40
2022-10-10T12:25:09.734Z,7.00
2022-10-10T12:26:09.706Z,7.80
2022-10-10T12:27:09.695Z,7.40
2022-10-10T12:28:09.737Z,7.60
2022-10-10T12:29:09.682Z,7.90
2022-10-10T12:30:09.778Z,10.00
2022-10-10T12:31:09.670Z,8.20
2022-10-10T12:32:09.664Z,9.60
2022-10-10T12:33:09.656Z,8.90
2022-10-10T12:34:09.644Z,5.50
2022-10-10T12:35:09.661Z,7.60
2022-10-10T12:36:09.632Z,7.30
2022-10-10T12:37:09.618Z,8.20
2022-10-10T12:38:09.610Z,7.80
2022-10-10T12:39:09.613Z,8.70
2022-10-10T12:40:09.677Z,8.70
2022-10-10T12:41:09.587Z,7.70
2022-10-10T12:42:09.589Z,7.30
2022-10-10T12:43:09.577Z,7.90
2022-10-10T12:44:09.568Z,6.10
2022-10-10T12:45:09.591Z,7.10
2022-10-10T12:46:09.540Z,6.20
2022-10-10T12:47:10.544Z,8.20
2022-10-10T12:48:09.534Z,7.20
2022-10-10T12:49:09.525Z,6.90
2022-10-10T12:50:09.552Z,9.00
2022-10-10T12:51:09.513Z,8.70
2022-10-10T12:52:09.503Z,7.70
2022-10-10T12:53:09.496Z,7.60
2022-10-10T12:54:09.484Z,7.20
2022-10-10T12:55:09.483Z,9.20
2022-10-10T12:56:09.504Z,7.00
2022-10-10T12:57:09.477Z,8.80
2022-10-10T12:58:12.163Z,6.60
2022-10-10T12:59:10.449Z,7.30
2022-10-10T13:00:09.457Z,8.50
2022-10-10T13:01:09.511Z,9.30
2022-10-10T13:02:09.428Z,8.40
2022-10-10T13:03:09.418Z,6.00
2022-10-10T13:04:09.420Z,8.20
2022-10-10T13:05:09.410Z,8.30
2022-10-10T13:06:09.420Z,8.00
2022-10-10T13:07:09.387Z,5.60
2022-10-10T13:08:09.387Z,8.10
2022-10-10T13:09:09.386Z,7.40
2022-10-10T13:10:09.372Z,6.90
2022-10-10T13:11:09.390Z,6.50
2022-10-10T13:12:09.357Z,6.60
2022-10-10T13:13:09.350Z,7.40